createdAt,value
2023-05-18T00:02:26.564Z,5.51
2023-05-18T00:04:54.766Z,5.61
2023-05-18T00:07:23.077Z,5.52
2023-05-18T00:09:51.934Z,5.57
2023-05-18T00:12:19.659Z,5.87
2023-05-18T00:14:47.454Z,5.88
2023-05-18T00:17:16.173Z,5.33
2023-05-18T00:19:46.739Z,5.65
2023-05-18T00:22:20.642Z,5.61
2023-05-18T00:24:49.058Z,5.78
2023-05-18T00:27:16.815Z,5.69
2023-05-18T00:29:44.724Z,6.08
2023-05-18T00:32:13.350Z,6.07
2023-05-18T00:34:41.138Z,5.96
2023-05-18T00:37:08.856Z,5.77
2023-05-18T00:39:37.013Z,5.61
2023-05-18T00:42:06.581Z,6.06
2023-05-18T00:44:34.548Z,6.19
2023-05-18T00:47:02.377Z,6.08
2023-05-18T00:49:30.529Z,6.34
2023-05-18T00:51:58.584Z,6.22
2023-05-18T00:54:27.299Z,6.43
2023-05-18T00:56:55.157Z,6.21
2023-05-18T00:59:22.953Z,6.58
2023-05-18T01:01:51.699Z,6.53
2023-05-18T01:04:21.801Z,6.66
2023-05-18T01:06:50.150Z,6.36
2023-05-18T01:09:18.116Z,6.71
2023-05-18T01:12:19.868Z,7.07
2023-05-18T01:15:03.761Z,6.54
2023-05-18T01:18:14.934Z,6.54
2023-05-18T01:21:13.665Z,6.57
2023-05-18T01:24:01.055Z,6.83
2023-05-18T01:26:31.791Z,6.67
2023-05-18T01:29:06.826Z,6.63
2023-05-18T01:31:35.240Z,7.37
2023-05-18T01:34:03.950Z,6.68
2023-05-18T01:36:32.998Z,6.96
2023-05-18T01:39:02.247Z,6.77
2023-05-18T01:41:32.417Z,6.58
2023-05-18T01:44:23.537Z,6.32
2023-05-18T01:46:51.241Z,6.48
2023-05-18T01:49:48.246Z,6.05
2023-05-18T01:52:24.937Z,6.54
2023-05-18T01:54:57.846Z,6.04
2023-05-18T01:57:30.169Z,5.89
2023-05-18T02:00:00.326Z,6.01
2023-05-18T02:02:29.817Z,5.93
2023-05-18T02:04:58.068Z,5.96
2023-05-18T02:07:25.921Z,6.20
2023-05-18T02:09:54.362Z,5.57
2023-05-18T02:12:23.186Z,5.73
2023-05-18T02:14:51.048Z,5.91
2023-05-18T02:17:18.818Z,6.07
2023-05-18T02:19:46.545Z,5.66
2023-05-18T02:22:14.303Z,5.79
2023-05-18T02:24:42.835Z,5.56
2023-05-18T02:27:10.620Z,5.91
2023-05-18T02:29:38.583Z,6.03
2023-05-18T02:32:07.104Z,5.86
2023-05-18T02:34:36.195Z,5.78
2023-05-18T02:37:04.477Z,5.88
2023-05-18T02:39:34.057Z,5.86
2023-05-18T02:42:02.029Z,5.90
2023-05-18T02:44:29.822Z,5.94
2023-05-18T02:46:57.528Z,6.34
2023-05-18T02:49:25.723Z,6.38
2023-05-18T02:51:53.388Z,6.45
2023-05-18T02:54:21.400Z,6.75
2023-05-18T02:56:49.157Z,6.79
2023-05-18T02:59:26.737Z,7.20
2023-05-18T03:01:54.665Z,7.16
2023-05-18T03:04:26.094Z,7.51
2023-05-18T03:06:57.506Z,7.63
2023-05-18T03:09:25.785Z,7.60
2023-05-18T03:11:55.186Z,7.39
2023-05-18T03:14:23.006Z,7.41
2023-05-18T03:16:54.400Z,7.65
2023-05-18T03:19:24.575Z,7.36
2023-05-18T03:21:52.460Z,7.10
2023-05-18T03:24:20.598Z,7.48
2023-05-18T03:26:50.327Z,7.33
2023-05-18T03:29:18.201Z,7.46
2023-05-18T03:31:46.206Z,7.57
2023-05-18T03:34:14.923Z,7.43
2023-05-18T03:36:47.696Z,7.55
2023-05-18T03:39:16.275Z,7.47
2023-05-18T03:41:44.125Z,7.00
2023-05-18T03:44:11.868Z,7.15
2023-05-18T03:46:39.756Z,7.28
2023-05-18T03:49:14.865Z,7.60
2023-05-18T03:51:43.932Z,7.36
2023-05-18T03:54:11.727Z,7.38
2023-05-18T03:56:39.734Z,7.35
2023-05-18T03:59:08.218Z,7.21
2023-05-18T04:01:37.075Z,7.26
2023-05-18T04:04:05.175Z,7.27
2023-05-18T04:06:37.877Z,7.53
2023-05-18T04:09:05.923Z,7.50
2023-05-18T04:11:34.447Z,7.71
2023-05-18T04:14:02.427Z,7.20
2023-05-18T04:16:31.595Z,7.79
2023-05-18T04:19:06.261Z,7.71
2023-05-18T04:21:36.282Z,7.76
2023-05-18T04:24:06.088Z,7.88
2023-05-18T04:26:36.995Z,7.71
2023-05-18T04:29:04.880Z,7.59
2023-05-18T04:31:32.666Z,7.78
2023-05-18T04:34:01.578Z,7.47
2023-05-18T04:36:32.775Z,7.67
2023-05-18T04:39:03.769Z,7.72
2023-05-18T04:41:34.280Z,7.47
2023-05-18T04:44:03.246Z,7.84
2023-05-18T04:46:31.494Z,8.08
2023-05-18T04:48:59.462Z,7.80
2023-05-18T04:51:27.593Z,7.58
2023-05-18T04:53:55.793Z,7.68
2023-05-18T04:56:23.582Z,7.75
2023-05-18T04:58:51.631Z,7.37
2023-05-18T05:01:19.524Z,7.65
2023-05-18T05:03:47.313Z,7.16
2023-05-18T05:06:15.985Z,7.45
2023-05-18T05:08:43.857Z,7.47
2023-05-18T05:11:11.541Z,7.59
2023-05-18T05:13:39.244Z,7.36
2023-05-18T05:16:08.860Z,7.63
2023-05-18T05:18:37.016Z,7.41
2023-05-18T05:21:04.821Z,7.16
2023-05-18T05:23:32.559Z,7.45
2023-05-18T05:26:00.417Z,7.46
2023-05-18T05:28:30.130Z,7.27
2023-05-18T05:30:57.801Z,7.47
2023-05-18T05:33:25.756Z,7.39
2023-05-18T05:35:53.893Z,7.28
2023-05-18T05:38:22.077Z,7.75
2023-05-18T05:40:49.925Z,7.64
2023-05-18T05:43:18.047Z,7.81
2023-05-18T05:45:47.426Z,7.06
2023-05-18T05:48:15.343Z,7.40
2023-05-18T05:50:43.130Z,7.07
2023-05-18T05:53:11.225Z,7.16
2023-05-18T05:55:42.128Z,7.42
2023-05-18T05:58:16.067Z,7.00
2023-05-18T06:00:49.504Z,7.17
2023-05-18T06:03:17.251Z,7.50
2023-05-18T06:05:47.259Z,7.53
2023-05-18T06:08:17.268Z,7.35
2023-05-18T06:10:45.868Z,7.59
2023-05-18T06:13:14.593Z,7.34
2023-05-18T06:15:54.771Z,7.73
2023-05-18T06:18:24.722Z,7.58
2023-05-18T06:20:57.098Z,7.69
2023-05-18T06:23:25.246Z,7.86
2023-05-18T06:26:02.245Z,7.88
2023-05-18T06:28:49.302Z,8.20
2023-05-18T06:31:40.664Z,7.59
2023-05-18T06:34:14.197Z,7.81
2023-05-18T06:36:42.069Z,7.46
2023-05-18T06:39:09.874Z,7.69
2023-05-18T06:41:38.054Z,7.54
2023-05-18T06:44:07.544Z,7.32
2023-05-18T06:46:39.211Z,7.40
2023-05-18T06:49:13.863Z,7.31
2023-05-18T06:51:43.844Z,7.58
2023-05-18T06:54:12.188Z,7.41
2023-05-18T06:56:40.176Z,7.53
2023-05-18T06:59:11.151Z,7.34
2023-05-18T07:01:40.610Z,7.67
2023-05-18T07:04:09.167Z,7.43
2023-05-18T07:06:37.216Z,7.87
2023-05-18T07:09:09.358Z,7.52
2023-05-18T07:11:37.159Z,7.54
2023-05-18T07:14:04.814Z,7.47
2023-05-18T07:16:33.269Z,6.94
2023-05-18T07:19:01.603Z,7.03
2023-05-18T07:21:29.446Z,6.63
2023-05-18T07:23:57.348Z,6.39
2023-05-18T07:26:25.171Z,6.38
2023-05-18T07:28:53.059Z,6.73
2023-05-18T07:31:22.312Z,6.69
2023-05-18T07:33:50.673Z,6.32
2023-05-18T07:36:18.700Z,6.29
2023-05-18T07:38:46.618Z,6.43
2023-05-18T07:41:14.391Z,6.25
2023-05-18T07:43:42.378Z,6.38
2023-05-18T07:46:11.165Z,6.49
2023-05-18T07:48:40.752Z,6.33
2023-05-18T07:51:09.105Z,6.11
2023-05-18T07:53:38.057Z,5.61
2023-05-18T07:56:08.435Z,6.08
2023-05-18T07:58:37.424Z,5.66
2023-05-18T08:01:05.664Z,5.37
2023-05-18T08:03:33.844Z,5.69
2023-05-18T08:06:01.903Z,5.83
2023-05-18T08:08:29.974Z,5.86
2023-05-18T08:10:59.388Z,6.17
2023-05-18T08:13:27.179Z,6.24
2023-05-18T08:16:09.848Z,6.21
2023-05-18T08:18:39.813Z,6.12
2023-05-18T08:21:09.921Z,6.25
2023-05-18T08:23:39.245Z,6.02
2023-05-18T08:26:10.063Z,6.27
2023-05-18T08:28:38.921Z,5.82
2023-05-18T08:31:07.406Z,5.95
2023-05-18T08:33:37.079Z,6.00
2023-05-18T08:36:05.309Z,5.83
2023-05-18T08:38:33.383Z,6.40
2023-05-18T08:41:19.228Z,6.32
2023-05-18T08:43:54.129Z,5.91
2023-05-18T08:46:33.739Z,6.16
2023-05-18T08:49:04.981Z,6.27
2023-05-18T08:51:41.976Z,6.67
2023-05-18T08:54:15.802Z,6.94
2023-05-18T08:56:46.134Z,7.16
2023-05-18T08:59:18.820Z,7.20
2023-05-18T09:01:47.971Z,6.51
2023-05-18T09:04:16.878Z,6.46
2023-05-18T09:06:45.243Z,7.00
2023-05-18T09:09:15.277Z,7.27
2023-05-18T09:11:43.263Z,7.15
2023-05-18T09:14:11.195Z,6.90
2023-05-18T09:16:39.178Z,6.97
2023-05-18T09:19:07.691Z,6.54
2023-05-18T09:21:36.087Z,6.66
2023-05-18T09:24:04.693Z,6.96
2023-05-18T09:26:32.625Z,6.80
2023-05-18T09:29:00.595Z,6.38
2023-05-18T09:31:30.984Z,6.52
2023-05-18T09:34:01.405Z,6.37
2023-05-18T09:36:32.451Z,6.57
2023-05-18T09:39:00.351Z,6.55
2023-05-18T09:41:28.674Z,6.41
2023-05-18T09:43:57.097Z,6.27
2023-05-18T09:46:25.209Z,6.42
2023-05-18T09:48:55.290Z,6.82
2023-05-18T09:51:25.401Z,7.22
2023-05-18T09:53:58.172Z,6.63
2023-05-18T09:56:27.354Z,6.45
2023-05-18T09:58:55.480Z,6.52
2023-05-18T10:01:23.447Z,6.50
2023-05-18T10:03:51.363Z,6.09
2023-05-18T10:06:21.237Z,6.45
2023-05-18T10:08:49.514Z,6.51
2023-05-18T10:11:21.918Z,6.90
2023-05-18T10:13:56.136Z,6.91
2023-05-18T10:16:25.827Z,6.77
2023-05-18T10:18:56.158Z,6.52
2023-05-18T10:21:27.440Z,6.56
2023-05-18T10:23:55.565Z,6.50
2023-05-18T10:26:28.569Z,6.43
2023-05-18T10:28:59.083Z,6.37
2023-05-18T10:31:30.787Z,6.18
2023-05-18T10:34:00.625Z,5.92
2023-05-18T10:36:30.256Z,6.31
2023-05-18T10:39:03.033Z,6.43
2023-05-18T10:41:33.684Z,6.59
2023-05-18T10:44:04.175Z,6.22
2023-05-18T10:46:33.426Z,6.07
2023-05-18T10:49:04.001Z,6.33
2023-05-18T10:51:32.156Z,6.24
2023-05-18T10:54:13.418Z,6.30
2023-05-18T10:56:49.359Z,6.18
2023-05-18T10:59:23.379Z,6.40
2023-05-18T11:01:54.035Z,6.29
2023-05-18T11:04:30.095Z,6.39
2023-05-18T11:07:02.410Z,6.68
2023-05-18T11:09:31.359Z,6.44
2023-05-18T11:12:01.059Z,6.31
2023-05-18T11:14:32.854Z,6.46
2023-05-18T11:17:23.900Z,6.54
2023-05-18T11:20:07.330Z,6.42
2023-05-18T11:22:48.420Z,6.03
2023-05-18T11:25:28.893Z,6.22
2023-05-18T11:28:03.434Z,5.58
2023-05-18T11:30:34.472Z,5.77
2023-05-18T11:33:21.044Z,5.56
2023-05-18T11:36:07.621Z,5.65
2023-05-18T11:38:54.783Z,5.29
2023-05-18T11:41:39.117Z,5.76
2023-05-18T11:44:14.226Z,6.08
2023-05-18T11:47:01.871Z,6.24
2023-05-18T11:49:42.552Z,5.59
2023-05-18T11:52:22.172Z,6.08
2023-05-18T11:55:01.118Z,5.89
2023-05-18T11:57:35.560Z,5.90
2023-05-18T12:00:13.673Z,5.65
2023-05-18T12:02:47.990Z,5.97
2023-05-18T12:05:16.484Z,5.93
2023-05-18T12:07:45.157Z,5.93
2023-05-18T12:10:15.184Z,6.27
2023-05-18T12:12:43.849Z,6.41
2023-05-18T12:15:16.512Z,6.24
2023-05-18T12:17:49.833Z,6.03
2023-05-18T12:20:22.981Z,6.10
2023-05-18T12:22:54.033Z,6.30
2023-05-18T12:25:24.393Z,6.23
2023-05-18T12:27:54.004Z,6.30
2023-05-18T12:30:35.028Z,5.85
2023-05-18T12:33:04.253Z,6.20
2023-05-18T12:35:33.562Z,6.34
2023-05-18T12:38:02.655Z,5.97
2023-05-18T12:40:46.518Z,6.22
2023-05-18T12:43:14.541Z,6.11
2023-05-18T12:45:45.839Z,5.86
2023-05-18T12:48:15.163Z,6.28
2023-05-18T12:50:53.177Z,5.89
2023-05-18T12:53:21.165Z,5.98
2023-05-18T12:55:59.844Z,5.48
2023-05-18T12:58:30.441Z,5.55
2023-05-18T13:00:58.460Z,5.80
2023-05-18T13:03:26.818Z,5.73
2023-05-18T13:06:10.175Z,5.97
2023-05-18T13:08:38.312Z,5.70
2023-05-18T13:11:14.796Z,5.56
2023-05-18T13:14:04.362Z,5.88
2023-05-18T13:16:38.245Z,5.48
2023-05-18T13:19:11.221Z,5.49
2023-05-18T13:21:39.216Z,5.96
2023-05-18T13:24:07.588Z,5.84
2023-05-18T13:26:39.380Z,6.11
2023-05-18T13:29:08.706Z,6.06
2023-05-18T13:31:37.196Z,5.84
2023-05-18T13:34:05.304Z,5.82
2023-05-18T13:36:36.718Z,5.80
2023-05-18T13:39:07.341Z,6.08
2023-05-18T13:41:36.822Z,5.87
2023-05-18T13:44:04.930Z,5.86
2023-05-18T13:46:33.301Z,5.48
2023-05-18T13:49:01.294Z,5.55
2023-05-18T13:51:29.227Z,5.45
2023-05-18T13:53:57.043Z,5.56
2023-05-18T13:56:25.205Z,5.38
2023-05-18T13:58:53.114Z,5.38
2023-05-18T14:01:22.377Z,5.34
2023-05-18T14:03:50.145Z,5.21
2023-05-18T14:06:18.239Z,5.65
2023-05-18T14:08:46.283Z,5.52
2023-05-18T14:11:13.985Z,5.34
2023-05-18T14:13:41.712Z,5.57
2023-05-18T14:16:09.661Z,5.66
2023-05-18T14:18:37.505Z,5.59
2023-05-18T14:21:05.528Z,6.04
2023-05-18T14:23:33.638Z,5.45
2023-05-18T14:26:01.348Z,6.06
2023-05-18T14:28:30.300Z,5.88
2023-05-18T14:30:58.133Z,5.27
2023-05-18T14:33:25.933Z,5.49
2023-05-18T14:35:55.850Z,5.23
2023-05-18T14:38:26.882Z,4.95
2023-05-18T14:40:54.659Z,5.92
2023-05-18T14:43:22.639Z,5.66
2023-05-18T14:46:00.282Z,5.25
2023-05-18T14:48:35.957Z,5.60
2023-05-18T14:51:03.757Z,5.42
2023-05-18T14:53:31.480Z,7.72
2023-05-18T14:55:59.652Z,5.36
2023-05-18T14:58:27.336Z,5.45
2023-05-18T15:00:57.033Z,5.19
2023-05-18T15:03:27.917Z,5.57
2023-05-18T15:05:56.534Z,5.54
2023-05-18T15:08:24.618Z,6.49
2023-05-18T15:10:52.612Z,5.56
2023-05-18T15:13:20.642Z,5.85
2023-05-18T15:15:48.796Z,5.83
2023-05-18T15:18:17.076Z,5.96
2023-05-18T15:20:45.163Z,5.43
2023-05-18T15:23:13.389Z,5.34
2023-05-18T15:25:41.765Z,5.68
2023-05-18T15:28:11.445Z,5.11
2023-05-18T15:30:39.781Z,5.37
2023-05-18T15:33:07.750Z,5.47
2023-05-18T15:35:36.752Z,5.14
2023-05-18T15:38:04.588Z,5.71
2023-05-18T15:40:32.536Z,5.93
2023-05-18T15:43:01.231Z,5.76
2023-05-18T15:45:29.281Z,5.27
2023-05-18T15:47:57.514Z,5.67
2023-05-18T15:50:25.715Z,5.56
2023-05-18T15:52:53.426Z,5.79
2023-05-18T15:55:21.168Z,6.00
2023-05-18T15:57:48.891Z,5.79
2023-05-18T16:00:18.116Z,5.91
2023-05-18T16:02:46.037Z,5.82
2023-05-18T16:05:14.021Z,5.55
2023-05-18T16:07:42.429Z,5.31
2023-05-18T16:10:10.809Z,5.51
2023-05-18T16:12:38.469Z,5.52
2023-05-18T16:15:07.147Z,5.57
2023-05-18T16:17:35.077Z,5.67
2023-05-18T16:20:04.134Z,5.03
2023-05-18T16:22:31.999Z,4.89
2023-05-18T16:24:59.925Z,4.99
2023-05-18T16:27:27.817Z,6.04
2023-05-18T16:29:56.038Z,5.97
2023-05-18T16:32:24.750Z,5.26
2023-05-18T16:34:52.835Z,6.10
2023-05-18T16:37:20.639Z,5.75
2023-05-18T16:39:48.258Z,5.65
2023-05-18T16:42:18.389Z,5.55
2023-05-18T16:44:46.136Z,5.50
2023-05-18T16:47:14.054Z,5.93
2023-05-18T16:49:45.810Z,5.67
2023-05-18T16:52:16.086Z,5.80
2023-05-18T16:54:47.387Z,5.43
2023-05-18T16:57:22.212Z,5.48
2023-05-18T16:59:50.965Z,5.84
2023-05-18T17:02:18.926Z,5.36
2023-05-18T17:04:49.861Z,5.30
2023-05-18T17:07:18.025Z,5.74
2023-05-18T17:09:46.208Z,5.73
2023-05-18T17:12:13.919Z,5.51
2023-05-18T17:14:41.766Z,5.32
2023-05-18T17:17:09.848Z,5.54
2023-05-18T17:19:39.808Z,5.33
2023-05-18T17:22:09.968Z,5.47
2023-05-18T17:24:41.538Z,5.33
2023-05-18T17:27:09.496Z,5.43
2023-05-18T17:29:37.724Z,5.19
2023-05-18T17:32:05.947Z,5.39
2023-05-18T17:34:34.057Z,5.21
2023-05-18T17:37:01.804Z,5.65
2023-05-18T17:39:30.948Z,5.54
2023-05-18T17:42:00.375Z,4.92
2023-05-18T17:44:28.498Z,5.20
2023-05-18T17:46:56.681Z,5.62
2023-05-18T17:49:24.552Z,5.13
2023-05-18T17:51:52.740Z,5.48
2023-05-18T17:54:20.687Z,5.10
2023-05-18T17:56:48.732Z,5.16
2023-05-18T17:59:17.910Z,5.18
2023-05-18T18:01:50.309Z,5.06
2023-05-18T18:04:23.358Z,4.64
2023-05-18T18:06:54.381Z,4.56
2023-05-18T18:09:22.350Z,4.65
2023-05-18T18:11:50.362Z,5.11
2023-05-18T18:14:18.347Z,5.12
2023-05-18T18:16:46.256Z,4.93
2023-05-18T18:19:15.249Z,5.00
2023-05-18T18:21:43.282Z,5.10
2023-05-18T18:24:11.213Z,5.30
2023-05-18T18:26:40.662Z,5.09
2023-05-18T18:29:08.639Z,5.45
2023-05-18T18:31:39.400Z,5.13
2023-05-18T18:34:07.485Z,5.48
2023-05-18T18:36:35.947Z,5.75
2023-05-18T18:39:04.160Z,5.06
2023-05-18T18:41:32.805Z,5.02
2023-05-18T18:44:00.706Z,5.18
2023-05-18T18:46:28.781Z,5.04
2023-05-18T18:48:56.586Z,5.40
2023-05-18T18:51:24.317Z,4.86
2023-05-18T18:53:52.135Z,5.17
2023-05-18T18:56:21.243Z,5.05
2023-05-18T18:58:50.667Z,5.06
2023-05-18T19:01:18.602Z,5.06
2023-05-18T19:03:46.373Z,4.83
2023-05-18T19:06:15.196Z,5.41
2023-05-18T19:08:44.576Z,5.10
2023-05-18T19:11:12.479Z,5.32
2023-05-18T19:13:40.429Z,5.06
2023-05-18T19:16:08.918Z,4.90
2023-05-18T19:18:39.064Z,4.34
2023-05-18T19:21:07.268Z,4.73
2023-05-18T19:23:35.010Z,4.60
2023-05-18T19:26:03.140Z,4.72
2023-05-18T19:28:30.908Z,4.90
2023-05-18T19:30:58.712Z,4.78
2023-05-18T19:33:29.910Z,4.84
2023-05-18T19:35:57.672Z,5.27
2023-05-18T19:38:25.504Z,4.95
2023-05-18T19:40:53.549Z,4.69
2023-05-18T19:43:21.355Z,4.55
2023-05-18T19:45:50.232Z,5.20
2023-05-18T19:48:20.886Z,5.89
2023-05-18T19:50:51.844Z,6.76
2023-05-18T19:53:20.809Z,7.25
2023-05-18T19:55:49.096Z,6.07
2023-05-18T19:58:17.401Z,5.30
2023-05-18T20:00:45.039Z,5.38
2023-05-18T20:03:14.596Z,5.04
2023-05-18T20:05:43.822Z,5.11
2023-05-18T20:08:12.742Z,5.33
2023-05-18T20:10:40.998Z,5.44
2023-05-18T20:13:09.094Z,5.29
2023-05-18T20:15:39.444Z,4.98
2023-05-18T20:18:08.647Z,5.22
2023-05-18T20:20:37.169Z,5.40
2023-05-18T20:23:07.567Z,5.47
2023-05-18T20:25:39.478Z,5.26
2023-05-18T20:28:07.961Z,5.21
2023-05-18T20:30:37.066Z,5.31
2023-05-18T20:33:05.829Z,5.55
2023-05-18T20:35:34.640Z,5.57
2023-05-18T20:38:04.443Z,5.51
2023-05-18T20:40:34.950Z,5.57
2023-05-18T20:43:05.347Z,5.78
2023-05-18T20:45:33.421Z,5.33
2023-05-18T20:48:04.260Z,5.45
2023-05-18T20:50:33.771Z,5.02
2023-05-18T20:53:01.804Z,5.15
2023-05-18T20:55:29.736Z,5.51
2023-05-18T20:57:57.708Z,5.15
2023-05-18T21:00:26.034Z,5.88
2023-05-18T21:02:54.086Z,5.87
2023-05-18T21:05:23.457Z,5.73
2023-05-18T21:07:51.941Z,5.98
2023-05-18T21:10:19.804Z,6.01
2023-05-18T21:12:50.427Z,6.03
2023-05-18T21:15:18.606Z,5.74
2023-05-18T21:17:46.772Z,5.96
2023-05-18T21:20:14.808Z,5.87
2023-05-18T21:22:42.700Z,6.55
2023-05-18T21:25:10.834Z,6.05
2023-05-18T21:27:38.920Z,6.11
2023-05-18T21:30:07.511Z,6.05
2023-05-18T21:32:35.937Z,6.16
2023-05-18T21:35:04.489Z,5.85
2023-05-18T21:37:32.326Z,6.06
2023-05-18T21:40:00.186Z,6.23
2023-05-18T21:42:28.144Z,6.02
2023-05-18T21:44:55.881Z,6.05
2023-05-18T21:47:23.929Z,6.38
2023-05-18T21:49:51.987Z,6.08
2023-05-18T21:52:19.830Z,6.23
2023-05-18T21:54:47.513Z,6.22
2023-05-18T21:57:15.885Z,6.07
2023-05-18T21:59:43.594Z,6.25
2023-05-18T22:02:11.985Z,6.40
2023-05-18T22:04:39.900Z,6.01
2023-05-18T22:07:08.608Z,6.44
2023-05-18T22:09:36.848Z,6.40
2023-05-18T22:12:04.923Z,6.38
2023-05-18T22:14:32.998Z,6.40
2023-05-18T22:17:02.260Z,6.50
2023-05-18T22:19:30.793Z,6.57
2023-05-18T22:22:01.012Z,6.27
2023-05-18T22:24:28.924Z,6.51
2023-05-18T22:26:59.973Z,6.51
2023-05-18T22:29:27.892Z,6.81
2023-05-18T22:31:55.732Z,7.00
2023-05-18T22:34:23.569Z,7.18
2023-05-18T22:36:53.855Z,6.86
2023-05-18T22:39:21.738Z,6.89
2023-05-18T22:41:49.990Z,6.87
2023-05-18T22:44:17.789Z,6.83
2023-05-18T22:46:45.954Z,6.69
2023-05-18T22:49:13.750Z,6.92
2023-05-18T22:51:41.465Z,7.02
2023-05-18T22:54:09.368Z,6.67
2023-05-18T22:56:37.415Z,6.78
2023-05-18T22:59:07.344Z,6.72
2023-05-18T23:01:37.774Z,7.23
2023-05-18T23:04:06.903Z,7.48
2023-05-18T23:06:34.741Z,6.97
2023-05-18T23:09:02.619Z,7.37
2023-05-18T23:11:31.047Z,7.34
2023-05-18T23:14:02.655Z,7.47
2023-05-18T23:16:30.659Z,7.40
2023-05-18T23:18:58.802Z,7.42
2023-05-18T23:21:26.770Z,7.32
2023-05-18T23:23:55.792Z,7.63
2023-05-18T23:26:24.086Z,7.59
2023-05-18T23:28:51.809Z,8.06
2023-05-18T23:31:19.483Z,7.71
2023-05-18T23:33:47.744Z,7.92
2023-05-18T23:36:20.203Z,7.63
2023-05-18T23:38:51.119Z,7.61
2023-05-18T23:41:19.588Z,7.90
2023-05-18T23:43:47.743Z,7.61
2023-05-18T23:46:17.066Z,7.63
2023-05-18T23:48:45.250Z,7.77
2023-05-18T23:51:16.751Z,7.49
2023-05-18T23:53:49.477Z,7.80
2023-05-18T23:56:18.184Z,7.68
2023-05-18T23:58:47.516Z,7.57
